sensor_id;sensor_type;location;lat;lon;timestamp;P1;durP1;ratioP1;P2;durP2;ratioP2
6898;SDS011;3488;42.616;23.350;2022-07-11T00:00:07;1.85;;;1.48;;
6898;SDS011;3488;42.616;23.350;2022-07-11T00:02:37;1.52;;;1.42;;
6898;SDS011;3488;42.616;23.350;2022-07-11T00:05:06;2.10;;;1.30;;
6898;SDS011;3488;42.616;23.350;2022-07-11T00:07:34;1.38;;;1.27;;
6898;SDS011;3488;42.616;23.350;2022-07-11T00:10:01;1.23;;;1.23;;
6898;SDS011;3488;42.616;23.350;2022-07-11T00:12:28;1.00;;;1.00;;
6898;SDS011;3488;42.616;23.350;2022-07-11T00:14:56;1.33;;;1.33;;
6898;SDS011;3488;42.616;23.350;2022-07-11T00:17:23;1.70;;;1.40;;
6898;SDS011;3488;42.616;23.350;2022-07-11T00:19:50;4.63;;;1.38;;
6898;SDS011;3488;42.616;23.350;2022-07-11T00:22:18;2.70;;;1.77;;
6898;SDS011;3488;42.616;23.350;2022-07-11T00:24:45;1.98;;;1.88;;
6898;SDS011;3488;42.616;23.350;2022-07-11T00:27:12;1.60;;;1.45;;
6898;SDS011;3488;42.616;23.350;2022-07-11T00:29:39;1.50;;;1.50;;
6898;SDS011;3488;42.616;23.350;2022-07-11T00:32:07;1.42;;;1.42;;
6898;SDS011;3488;42.616;23.350;2022-07-11T00:34:34;1.33;;;1.30;;
6898;SDS011;3488;42.616;23.350;2022-07-11T00:37:01;1.20;;;1.20;;
6898;SDS011;3488;42.616;23.350;2022-07-11T00:39:29;1.70;;;1.60;;
6898;SDS011;3488;42.616;23.350;2022-07-11T00:41:56;1.30;;;1.30;;
6898;SDS011;3488;42.616;23.350;2022-07-11T00:44:23;3.97;;;1.67;;
6898;SDS011;3488;42.616;23.350;2022-07-11T00:46:50;1.75;;;1.65;;
6898;SDS011;3488;42.616;23.350;2022-07-11T00:49:17;1.77;;;1.67;;
6898;SDS011;3488;42.616;23.350;2022-07-11T00:51:44;2.92;;;1.58;;
6898;SDS011;3488;42.616;23.350;2022-07-11T00:54:11;1.30;;;1.30;;
6898;SDS011;3488;42.616;23.350;2022-07-11T00:56:41;2.70;;;1.73;;
6898;SDS011;3488;42.616;23.350;2022-07-11T00:59:09;2.10;;;1.58;;
6898;SDS011;3488;42.616;23.350;2022-07-11T01:01:37;1.27;;;1.20;;
6898;SDS011;3488;42.616;23.350;2022-07-11T01:04:04;2.13;;;1.48;;
6898;SDS011;3488;42.616;23.350;2022-07-11T01:06:31;4.00;;;1.00;;
6898;SDS011;3488;42.616;23.350;2022-07-11T01:08:58;2.15;;;1.33;;
6898;SDS011;3488;42.616;23.350;2022-07-11T01:11:24;2.22;;;1.27;;
6898;SDS011;3488;42.616;23.350;2022-07-11T01:13:54;4.97;;;1.30;;
6898;SDS011;3488;42.616;23.350;2022-07-11T01:16:22;0.90;;;0.90;;
6898;SDS011;3488;42.616;23.350;2022-07-11T01:18:49;1.23;;;1.13;;
6898;SDS011;3488;42.616;23.350;2022-07-11T01:21:18;2.35;;;1.38;;
6898;SDS011;3488;42.616;23.350;2022-07-11T01:23:50;3.58;;;1.38;;
6898;SDS011;3488;42.616;23.350;2022-07-11T01:26:19;1.20;;;1.20;;
6898;SDS011;3488;42.616;23.350;2022-07-11T01:28:46;1.45;;;1.35;;
6898;SDS011;3488;42.616;23.350;2022-07-11T01:31:14;1.30;;;1.10;;
6898;SDS011;3488;42.616;23.350;2022-07-11T01:33:41;1.30;;;1.27;;
6898;SDS011;3488;42.616;23.350;2022-07-11T01:36:08;1.33;;;1.27;;
6898;SDS011;3488;42.616;23.350;2022-07-11T01:38:35;2.28;;;1.33;;
6898;SDS011;3488;42.616;23.350;2022-07-11T01:41:04;1.20;;;1.20;;
6898;SDS011;3488;42.616;23.350;2022-07-11T01:43:32;1.00;;;1.00;;
6898;SDS011;3488;42.616;23.350;2022-07-11T01:45:59;1.20;;;1.17;;
6898;SDS011;3488;42.616;23.350;2022-07-11T01:48:26;1.10;;;1.10;;
6898;SDS011;3488;42.616;23.350;2022-07-11T01:50:53;1.23;;;1.23;;
6898;SDS011;3488;42.616;23.350;2022-07-11T01:53:20;1.00;;;1.00;;
6898;SDS011;3488;42.616;23.350;2022-07-11T01:55:47;1.10;;;1.10;;
6898;SDS011;3488;42.616;23.350;2022-07-11T01:58:16;0.98;;;0.90;;
6898;SDS011;3488;42.616;23.350;2022-07-11T02:00:43;1.25;;;1.23;;
6898;SDS011;3488;42.616;23.350;2022-07-11T02:03:10;1.10;;;1.10;;
6898;SDS011;3488;42.616;23.350;2022-07-11T02:05:37;3.55;;;1.27;;
6898;SDS011;3488;42.616;23.350;2022-07-11T02:08:05;1.30;;;1.30;;
6898;SDS011;3488;42.616;23.350;2022-07-11T02:10:38;1.00;;;1.00;;
6898;SDS011;3488;42.616;23.350;2022-07-11T02:13:07;1.60;;;1.08;;
6898;SDS011;3488;42.616;23.350;2022-07-11T02:15:37;1.33;;;1.20;;
6898;SDS011;3488;42.616;23.350;2022-07-11T02:18:05;2.65;;;0.98;;
6898;SDS011;3488;42.616;23.350;2022-07-11T02:20:32;4.30;;;1.15;;
6898;SDS011;3488;42.616;23.350;2022-07-11T02:23:00;0.90;;;0.90;;
6898;SDS011;3488;42.616;23.350;2022-07-11T02:25:28;2.97;;;1.30;;
6898;SDS011;3488;42.616;23.350;2022-07-11T02:27:55;3.80;;;1.40;;
6898;SDS011;3488;42.616;23.350;2022-07-11T02:30:22;1.00;;;1.00;;
6898;SDS011;3488;42.616;23.350;2022-07-11T02:32:51;1.38;;;1.27;;
6898;SDS011;3488;42.616;23.350;2022-07-11T02:35:19;0.98;;;0.98;;
6898;SDS011;3488;42.616;23.350;2022-07-11T02:37:46;1.48;;;1.38;;
6898;SDS011;3488;42.616;23.350;2022-07-11T02:40:14;2.30;;;1.70;;
6898;SDS011;3488;42.616;23.350;2022-07-11T02:42:41;0.95;;;0.90;;
6898;SDS011;3488;42.616;23.350;2022-07-11T02:45:08;2.17;;;1.17;;
6898;SDS011;3488;42.616;23.350;2022-07-11T02:47:36;2.17;;;1.33;;
6898;SDS011;3488;42.616;23.350;2022-07-11T02:50:07;1.38;;;1.38;;
6898;SDS011;3488;42.616;23.350;2022-07-11T02:52:36;1.15;;;1.08;;
6898;SDS011;3488;42.616;23.350;2022-07-11T02:55:03;0.93;;;0.93;;
6898;SDS011;3488;42.616;23.350;2022-07-11T02:57:32;2.20;;;1.00;;
6898;SDS011;3488;42.616;23.350;2022-07-11T02:59:59;2.85;;;1.23;;
6898;SDS011;3488;42.616;23.350;2022-07-11T03:02:27;2.10;;;1.20;;
6898;SDS011;3488;42.616;23.350;2022-07-11T03:04:53;1.20;;;1.10;;
6898;SDS011;3488;42.616;23.350;2022-07-11T03:07:22;1.05;;;1.05;;
6898;SDS011;3488;42.616;23.350;2022-07-11T03:09:48;3.30;;;1.17;;
6898;SDS011;3488;42.616;23.350;2022-07-11T03:12:15;1.40;;;1.30;;
6898;SDS011;3488;42.616;23.350;2022-07-11T03:14:42;1.08;;;1.08;;
6898;SDS011;3488;42.616;23.350;2022-07-11T03:17:09;1.08;;;1.08;;
6898;SDS011;3488;42.616;23.350;2022-07-11T03:19:36;3.72;;;1.05;;
6898;SDS011;3488;42.616;23.350;2022-07-11T03:22:03;1.38;;;1.27;;
6898;SDS011;3488;42.616;23.350;2022-07-11T03:24:32;0.93;;;0.93;;
6898;SDS011;3488;42.616;23.350;2022-07-11T03:26:59;1.25;;;1.20;;
6898;SDS011;3488;42.616;23.350;2022-07-11T03:29:26;1.20;;;1.20;;
6898;SDS011;3488;42.616;23.350;2022-07-11T03:31:53;1.95;;;1.00;;
6898;SDS011;3488;42.616;23.350;2022-07-11T03:34:20;1.30;;;1.20;;
6898;SDS011;3488;42.616;23.350;2022-07-11T03:36:47;1.00;;;1.00;;
6898;SDS011;3488;42.616;23.350;2022-07-11T03:39:13;2.88;;;1.52;;
6898;SDS011;3488;42.616;23.350;2022-07-11T03:41:42;1.85;;;1.20;;
6898;SDS011;3488;42.616;23.350;2022-07-11T03:44:09;1.13;;;1.13;;
6898;SDS011;3488;42.616;23.350;2022-07-11T03:46:36;3.28;;;1.15;;
6898;SDS011;3488;42.616;23.350;2022-07-11T03:49:03;1.23;;;1.23;;
6898;SDS011;3488;42.616;23.350;2022-07-11T03:51:30;2.17;;;0.93;;
6898;SDS011;3488;42.616;23.350;2022-07-11T03:53:57;1.05;;;1.05;;
6898;SDS011;3488;42.616;23.350;2022-07-11T03:56:25;1.50;;;1.40;;
6898;SDS011;3488;42.616;23.350;2022-07-11T03:58:53;1.50;;;1.20;;
6898;SDS011;3488;42.616;23.350;2022-07-11T04:01:20;1.20;;;1.20;;
6898;SDS011;3488;42.616;23.350;2022-07-11T04:03:47;1.35;;;1.25;;
6898;SDS011;3488;42.616;23.350;2022-07-11T04:06:14;2.05;;;1.17;;
6898;SDS011;3488;42.616;23.350;2022-07-11T04:08:42;1.45;;;1.20;;
6898;SDS011;3488;42.616;23.350;2022-07-11T04:11:09;2.30;;;1.52;;
6898;SDS011;3488;42.616;23.350;2022-07-11T04:13:36;0.93;;;0.93;;
6898;SDS011;3488;42.616;23.350;2022-07-11T04:16:04;1.48;;;1.40;;
6898;SDS011;3488;42.616;23.350;2022-07-11T04:18:32;1.58;;;1.48;;
6898;SDS011;3488;42.616;23.350;2022-07-11T04:20:59;1.25;;;1.25;;
6898;SDS011;3488;42.616;23.350;2022-07-11T04:23:26;5.07;;;1.67;;
6898;SDS011;3488;42.616;23.350;2022-07-11T04:25:53;1.45;;;1.45;;
6898;SDS011;3488;42.616;23.350;2022-07-11T04:28:20;1.75;;;1.73;;
6898;SDS011;3488;42.616;23.350;2022-07-11T04:30:47;1.52;;;1.48;;
6898;SDS011;3488;42.616;23.350;2022-07-11T04:33:15;1.77;;;1.60;;
6898;SDS011;3488;42.616;23.350;2022-07-11T04:35:43;2.60;;;1.45;;
6898;SDS011;3488;42.616;23.350;2022-07-11T04:38:09;1.60;;;1.52;;
6898;SDS011;3488;42.616;23.350;2022-07-11T04:40:36;1.38;;;1.27;;
6898;SDS011;3488;42.616;23.350;2022-07-11T04:43:03;2.33;;;1.48;;
6898;SDS011;3488;42.616;23.350;2022-07-11T04:45:31;1.50;;;1.50;;
6898;SDS011;3488;42.616;23.350;2022-07-11T04:47:58;1.60;;;1.45;;
6898;SDS011;3488;42.616;23.350;2022-07-11T04:50:28;1.58;;;1.20;;
6898;SDS011;3488;42.616;23.350;2022-07-11T04:52:55;2.78;;;1.67;;
6898;SDS011;3488;42.616;23.350;2022-07-11T04:55:22;3.97;;;1.02;;
6898;SDS011;3488;42.616;23.350;2022-07-11T04:57:49;1.90;;;1.80;;
6898;SDS011;3488;42.616;23.350;2022-07-11T05:00:16;2.22;;;1.88;;
6898;SDS011;3488;42.616;23.350;2022-07-11T05:02:43;1.40;;;1.40;;
6898;SDS011;3488;42.616;23.350;2022-07-11T05:05:10;1.48;;;1.48;;
6898;SDS011;3488;42.616;23.350;2022-07-11T05:07:38;1.63;;;1.52;;
6898;SDS011;3488;42.616;23.350;2022-07-11T05:10:06;1.52;;;1.42;;
6898;SDS011;3488;42.616;23.350;2022-07-11T05:12:34;1.38;;;1.35;;
6898;SDS011;3488;42.616;23.350;2022-07-11T05:15:00;4.97;;;1.42;;
6898;SDS011;3488;42.616;23.350;2022-07-11T05:17:27;1.55;;;1.45;;
6898;SDS011;3488;42.616;23.350;2022-07-11T05:19:54;1.75;;;1.65;;
6898;SDS011;3488;42.616;23.350;2022-07-11T05:22:21;1.50;;;1.40;;
6898;SDS011;3488;42.616;23.350;2022-07-11T05:24:50;1.70;;;1.40;;
6898;SDS011;3488;42.616;23.350;2022-07-11T05:27:19;2.15;;;1.55;;
6898;SDS011;3488;42.616;23.350;2022-07-11T05:29:46;1.77;;;1.67;;
6898;SDS011;3488;42.616;23.350;2022-07-11T05:32:13;1.65;;;1.65;;
6898;SDS011;3488;42.616;23.350;2022-07-11T05:34:40;3.45;;;1.30;;
6898;SDS011;3488;42.616;23.350;2022-07-11T05:37:07;1.60;;;1.50;;
6898;SDS011;3488;42.616;23.350;2022-07-11T05:39:34;2.15;;;1.10;;
6898;SDS011;3488;42.616;23.350;2022-07-11T05:42:02;1.75;;;1.40;;
6898;SDS011;3488;42.616;23.350;2022-07-11T05:44:29;5.28;;;1.45;;
6898;SDS011;3488;42.616;23.350;2022-07-11T05:47:00;1.08;;;1.08;;
6898;SDS011;3488;42.616;23.350;2022-07-11T05:49:27;1.73;;;1.20;;
6898;SDS011;3488;42.616;23.350;2022-07-11T05:51:54;1.23;;;1.13;;
6898;SDS011;3488;42.616;23.350;2022-07-11T05:54:20;3.22;;;1.42;;
6898;SDS011;3488;42.616;23.350;2022-07-11T05:56:47;2.35;;;1.35;;
6898;SDS011;3488;42.616;23.350;2022-07-11T05:59:16;1.40;;;1.30;;
6898;SDS011;3488;42.616;23.350;2022-07-11T06:01:43;1.30;;;1.30;;
6898;SDS011;3488;42.616;23.350;2022-07-11T06:04:09;2.63;;;1.50;;
6898;SDS011;3488;42.616;23.350;2022-07-11T06:06:37;1.58;;;1.48;;
6898;SDS011;3488;42.616;23.350;2022-07-11T06:09:04;1.85;;;1.58;;
6898;SDS011;3488;42.616;23.350;2022-07-11T06:11:30;1.50;;;1.50;;
6898;SDS011;3488;42.616;23.350;2022-07-11T06:13:58;1.40;;;1.30;;
6898;SDS011;3488;42.616;23.350;2022-07-11T06:16:26;1.85;;;1.17;;
6898;SDS011;3488;42.616;23.350;2022-07-11T06:18:53;1.90;;;1.30;;
6898;SDS011;3488;42.616;23.350;2022-07-11T06:21:20;2.35;;;1.40;;
6898;SDS011;3488;42.616;23.350;2022-07-11T06:23:47;5.63;;;1.33;;
6898;SDS011;3488;42.616;23.350;2022-07-11T06:26:14;1.83;;;1.33;;
6898;SDS011;3488;42.616;23.350;2022-07-11T06:28:41;3.15;;;1.35;;
6898;SDS011;3488;42.616;23.350;2022-07-11T06:31:09;2.67;;;1.45;;
6898;SDS011;3488;42.616;23.350;2022-07-11T06:33:38;3.13;;;1.40;;
6898;SDS011;3488;42.616;23.350;2022-07-11T06:36:05;1.80;;;0.90;;
6898;SDS011;3488;42.616;23.350;2022-07-11T06:38:33;0.80;;;0.80;;
6898;SDS011;3488;42.616;23.350;2022-07-11T06:41:01;1.75;;;1.00;;
6898;SDS011;3488;42.616;23.350;2022-07-11T06:43:28;4.00;;;0.98;;
6898;SDS011;3488;42.616;23.350;2022-07-11T06:45:56;0.77;;;0.70;;
6898;SDS011;3488;42.616;23.350;2022-07-11T06:48:23;0.75;;;0.75;;
6898;SDS011;3488;42.616;23.350;2022-07-11T06:50:52;0.70;;;0.70;;
6898;SDS011;3488;42.616;23.350;2022-07-11T06:53:20;0.50;;;0.50;;
6898;SDS011;3488;42.616;23.350;2022-07-11T06:55:47;1.38;;;0.60;;
6898;SDS011;3488;42.616;23.350;2022-07-11T06:58:13;2.55;;;0.80;;
6898;SDS011;3488;42.616;23.350;2022-07-11T07:00:57;0.82;;;0.82;;
6898;SDS011;3488;42.616;23.350;2022-07-11T07:03:25;0.60;;;0.60;;
6898;SDS011;3488;42.616;23.350;2022-07-11T07:05:54;2.22;;;1.17;;
6898;SDS011;3488;42.616;23.350;2022-07-11T07:08:23;2.05;;;0.98;;
6898;SDS011;3488;42.616;23.350;2022-07-11T07:10:54;0.98;;;0.90;;
6898;SDS011;3488;42.616;23.350;2022-07-11T07:13:22;0.80;;;0.80;;
6898;SDS011;3488;42.616;23.350;2022-07-11T07:15:51;0.73;;;0.65;;
6898;SDS011;3488;42.616;23.350;2022-07-11T07:18:18;0.77;;;0.70;;
6898;SDS011;3488;42.616;23.350;2022-07-11T07:20:46;1.67;;;0.65;;
6898;SDS011;3488;42.616;23.350;2022-07-11T07:23:23;1.13;;;0.85;;
6898;SDS011;3488;42.616;23.350;2022-07-11T07:25:50;2.05;;;0.90;;
6898;SDS011;3488;42.616;23.350;2022-07-11T07:28:17;0.90;;;0.90;;
6898;SDS011;3488;42.616;23.350;2022-07-11T07:30:44;1.08;;;0.90;;
6898;SDS011;3488;42.616;23.350;2022-07-11T07:33:12;0.90;;;0.90;;
6898;SDS011;3488;42.616;23.350;2022-07-11T07:35:39;5.78;;;0.85;;
6898;SDS011;3488;42.616;23.350;2022-07-11T07:38:06;4.28;;;1.10;;
6898;SDS011;3488;42.616;23.350;2022-07-11T07:40:35;3.63;;;1.23;;
6898;SDS011;3488;42.616;23.350;2022-07-11T07:43:02;0.60;;;0.60;;
6898;SDS011;3488;42.616;23.350;2022-07-11T07:45:29;0.95;;;0.95;;
6898;SDS011;3488;42.616;23.350;2022-07-11T07:47:58;0.98;;;0.98;;
6898;SDS011;3488;42.616;23.350;2022-07-11T07:50:29;0.63;;;0.63;;
6898;SDS011;3488;42.616;23.350;2022-07-11T07:52:57;2.75;;;0.98;;
6898;SDS011;3488;42.616;23.350;2022-07-11T07:55:24;1.58;;;1.08;;
6898;SDS011;3488;42.616;23.350;2022-07-11T07:57:53;1.85;;;0.90;;
6898;SDS011;3488;42.616;23.350;2022-07-11T08:00:28;3.60;;;1.17;;
6898;SDS011;3488;42.616;23.350;2022-07-11T08:03:44;1.10;;;1.10;;
6898;SDS011;3488;42.616;23.350;2022-07-11T08:06:15;2.58;;;0.80;;
6898;SDS011;3488;42.616;23.350;2022-07-11T08:08:42;4.38;;;0.65;;
6898;SDS011;3488;42.616;23.350;2022-07-11T08:11:12;3.25;;;0.70;;
6898;SDS011;3488;42.616;23.350;2022-07-11T08:13:49;0.95;;;0.95;;
6898;SDS011;3488;42.616;23.350;2022-07-11T08:16:17;0.90;;;0.90;;
6898;SDS011;3488;42.616;23.350;2022-07-11T08:18:48;0.70;;;0.70;;
6898;SDS011;3488;42.616;23.350;2022-07-11T08:21:15;1.35;;;1.00;;
6898;SDS011;3488;42.616;23.350;2022-07-11T08:23:42;2.97;;;0.65;;
6898;SDS011;3488;42.616;23.350;2022-07-11T08:26:09;3.63;;;0.70;;
6898;SDS011;3488;42.616;23.350;2022-07-11T08:28:36;0.93;;;0.80;;
6898;SDS011;3488;42.616;23.350;2022-07-11T08:31:04;1.20;;;1.05;;
6898;SDS011;3488;42.616;23.350;2022-07-11T08:33:31;0.85;;;0.85;;
6898;SDS011;3488;42.616;23.350;2022-07-11T08:35:58;3.03;;;0.70;;
6898;SDS011;3488;42.616;23.350;2022-07-11T08:38:25;2.65;;;1.30;;
6898;SDS011;3488;42.616;23.350;2022-07-11T08:40:52;1.33;;;0.80;;
6898;SDS011;3488;42.616;23.350;2022-07-11T08:43:22;2.47;;;0.65;;
6898;SDS011;3488;42.616;23.350;2022-07-11T08:45:52;0.60;;;0.60;;
6898;SDS011;3488;42.616;23.350;2022-07-11T08:48:22;0.85;;;0.85;;
6898;SDS011;3488;42.616;23.350;2022-07-11T08:50:50;0.70;;;0.70;;
6898;SDS011;3488;42.616;23.350;2022-07-11T08:53:18;1.13;;;0.98;;
6898;SDS011;3488;42.616;23.350;2022-07-11T08:55:45;0.60;;;0.60;;
6898;SDS011;3488;42.616;23.350;2022-07-11T08:58:13;2.70;;;0.95;;
6898;SDS011;3488;42.616;23.350;2022-07-11T09:00:41;9.05;;;0.90;;
6898;SDS011;3488;42.616;23.350;2022-07-11T09:03:10;0.60;;;0.60;;
6898;SDS011;3488;42.616;23.350;2022-07-11T09:05:42;3.60;;;1.02;;
6898;SDS011;3488;42.616;23.350;2022-07-11T09:08:10;1.70;;;0.88;;
6898;SDS011;3488;42.616;23.350;2022-07-11T09:10:37;1.33;;;0.90;;
6898;SDS011;3488;42.616;23.350;2022-07-11T09:13:06;0.90;;;0.90;;
6898;SDS011;3488;42.616;23.350;2022-07-11T09:15:37;4.30;;;0.60;;
6898;SDS011;3488;42.616;23.350;2022-07-11T09:18:06;1.55;;;0.80;;
6898;SDS011;3488;42.616;23.350;2022-07-11T09:20:58;2.45;;;0.77;;
6898;SDS011;3488;42.616;23.350;2022-07-11T09:23:44;0.93;;;0.80;;
6898;SDS011;3488;42.616;23.350;2022-07-11T09:26:29;0.60;;;0.60;;
6898;SDS011;3488;42.616;23.350;2022-07-11T09:28:58;1.38;;;0.90;;
6898;SDS011;3488;42.616;23.350;2022-07-11T09:31:29;2.30;;;0.80;;
6898;SDS011;3488;42.616;23.350;2022-07-11T09:33:57;1.45;;;0.50;;
6898;SDS011;3488;42.616;23.350;2022-07-11T09:36:37;0.93;;;0.70;;
6898;SDS011;3488;42.616;23.350;2022-07-11T09:39:07;1.08;;;0.82;;
6898;SDS011;3488;42.616;23.350;2022-07-11T09:41:36;2.15;;;0.70;;
6898;SDS011;3488;42.616;23.350;2022-07-11T09:44:07;1.38;;;0.70;;
6898;SDS011;3488;42.616;23.350;2022-07-11T09:46:35;0.77;;;0.77;;
6898;SDS011;3488;42.616;23.350;2022-07-11T09:49:03;1.30;;;0.75;;
6898;SDS011;3488;42.616;23.350;2022-07-11T09:51:30;1.55;;;0.73;;
6898;SDS011;3488;42.616;23.350;2022-07-11T09:54:00;0.95;;;0.90;;
6898;SDS011;3488;42.616;23.350;2022-07-11T09:56:33;0.65;;;0.55;;
6898;SDS011;3488;42.616;23.350;2022-07-11T09:59:02;0.50;;;0.50;;
6898;SDS011;3488;42.616;23.350;2022-07-11T10:01:30;0.70;;;0.70;;
6898;SDS011;3488;42.616;23.350;2022-07-11T10:03:58;2.30;;;0.70;;
6898;SDS011;3488;42.616;23.350;2022-07-11T10:06:25;6.93;;;0.65;;
6898;SDS011;3488;42.616;23.350;2022-07-11T10:08:53;1.00;;;0.70;;
6898;SDS011;3488;42.616;23.350;2022-07-11T10:11:21;0.77;;;0.77;;
6898;SDS011;3488;42.616;23.350;2022-07-11T10:13:49;1.27;;;0.82;;
6898;SDS011;3488;42.616;23.350;2022-07-11T10:16:24;1.35;;;0.65;;
6898;SDS011;3488;42.616;23.350;2022-07-11T10:19:11;0.60;;;0.60;;
6898;SDS011;3488;42.616;23.350;2022-07-11T10:21:52;2.15;;;0.82;;
6898;SDS011;3488;42.616;23.350;2022-07-11T10:24:32;0.70;;;0.70;;
6898;SDS011;3488;42.616;23.350;2022-07-11T10:27:10;2.08;;;0.75;;
6898;SDS011;3488;42.616;23.350;2022-07-11T10:29:44;0.95;;;0.82;;
6898;SDS011;3488;42.616;23.350;2022-07-11T10:32:15;3.60;;;0.70;;
6898;SDS011;3488;42.616;23.350;2022-07-11T10:34:42;2.50;;;0.70;;
6898;SDS011;3488;42.616;23.350;2022-07-11T10:37:10;0.60;;;0.60;;
6898;SDS011;3488;42.616;23.350;2022-07-11T10:39:38;2.88;;;0.90;;
6898;SDS011;3488;42.616;23.350;2022-07-11T10:42:19;5.07;;;0.95;;
6898;SDS011;3488;42.616;23.350;2022-07-11T10:44:47;0.50;;;0.50;;
6898;SDS011;3488;42.616;23.350;2022-07-11T10:47:33;1.23;;;1.13;;
6898;SDS011;3488;42.616;23.350;2022-07-11T10:50:03;1.75;;;0.80;;
6898;SDS011;3488;42.616;23.350;2022-07-11T10:52:37;0.80;;;0.80;;
6898;SDS011;3488;42.616;23.350;2022-07-11T10:55:11;0.90;;;0.90;;
6898;SDS011;3488;42.616;23.350;2022-07-11T10:57:58;0.60;;;0.60;;
6898;SDS011;3488;42.616;23.350;2022-07-11T11:00:31;0.45;;;0.45;;
6898;SDS011;3488;42.616;23.350;2022-07-11T11:02:59;0.80;;;0.80;;
6898;SDS011;3488;42.616;23.350;2022-07-11T11:05:40;0.82;;;0.70;;
6898;SDS011;3488;42.616;23.350;2022-07-11T11:11:33;2.75;;;0.80;;
6898;SDS011;3488;42.616;23.350;2022-07-11T11:14:20;1.52;;;0.88;;
6898;SDS011;3488;42.616;23.350;2022-07-11T11:16:52;0.85;;;0.85;;
6898;SDS011;3488;42.616;23.350;2022-07-11T11:22:22;0.70;;;0.70;;
6898;SDS011;3488;42.616;23.350;2022-07-11T11:24:51;3.53;;;0.82;;
6898;SDS011;3488;42.616;23.350;2022-07-11T11:27:20;0.63;;;0.63;;
6898;SDS011;3488;42.616;23.350;2022-07-11T11:29:52;1.85;;;1.00;;
6898;SDS011;3488;42.616;23.350;2022-07-11T11:32:20;1.30;;;0.80;;
6898;SDS011;3488;42.616;23.350;2022-07-11T11:34:48;0.75;;;0.75;;
6898;SDS011;3488;42.616;23.350;2022-07-11T11:37:19;0.75;;;0.75;;
6898;SDS011;3488;42.616;23.350;2022-07-11T11:39:47;0.85;;;0.80;;
6898;SDS011;3488;42.616;23.350;2022-07-11T11:42:15;0.77;;;0.77;;
6898;SDS011;3488;42.616;23.350;2022-07-11T11:44:46;3.22;;;0.70;;
6898;SDS011;3488;42.616;23.350;2022-07-11T11:47:28;1.95;;;0.70;;
6898;SDS011;3488;42.616;23.350;2022-07-11T11:49:56;0.80;;;0.80;;
6898;SDS011;3488;42.616;23.350;2022-07-11T11:52:23;0.80;;;0.80;;
6898;SDS011;3488;42.616;23.350;2022-07-11T11:54:51;1.35;;;0.73;;
6898;SDS011;3488;42.616;23.350;2022-07-11T11:57:20;0.90;;;0.90;;
6898;SDS011;3488;42.616;23.350;2022-07-11T11:59:49;1.02;;;0.60;;
6898;SDS011;3488;42.616;23.350;2022-07-11T12:02:25;0.65;;;0.65;;
6898;SDS011;3488;42.616;23.350;2022-07-11T12:04:53;3.17;;;0.73;;
6898;SDS011;3488;42.616;23.350;2022-07-11T12:07:21;1.75;;;0.90;;
6898;SDS011;3488;42.616;23.350;2022-07-11T12:09:53;0.73;;;0.60;;
6898;SDS011;3488;42.616;23.350;2022-07-11T12:12:22;2.70;;;1.13;;
6898;SDS011;3488;42.616;23.350;2022-07-11T12:15:21;0.70;;;0.70;;
6898;SDS011;3488;42.616;23.350;2022-07-11T12:17:55;0.90;;;0.90;;
6898;SDS011;3488;42.616;23.350;2022-07-11T12:20:38;1.05;;;0.70;;
6898;SDS011;3488;42.616;23.350;2022-07-11T12:23:07;0.80;;;0.80;;
6898;SDS011;3488;42.616;23.350;2022-07-11T12:25:35;1.60;;;0.73;;
6898;SDS011;3488;42.616;23.350;2022-07-11T12:28:04;0.90;;;0.90;;
6898;SDS011;3488;42.616;23.350;2022-07-11T12:30:33;1.15;;;1.10;;
6898;SDS011;3488;42.616;23.350;2022-07-11T12:33:03;3.50;;;1.00;;
6898;SDS011;3488;42.616;23.350;2022-07-11T12:35:31;2.08;;;1.10;;
6898;SDS011;3488;42.616;23.350;2022-07-11T12:37:58;1.10;;;1.10;;
6898;SDS011;3488;42.616;23.350;2022-07-11T12:40:25;1.45;;;0.80;;
6898;SDS011;3488;42.616;23.350;2022-07-11T12:42:51;0.82;;;0.82;;
6898;SDS011;3488;42.616;23.350;2022-07-11T12:45:18;1.98;;;1.65;;
6898;SDS011;3488;42.616;23.350;2022-07-11T12:47:45;3.08;;;1.45;;
6898;SDS011;3488;42.616;23.350;2022-07-11T12:50:16;2.85;;;0.90;;
6898;SDS011;3488;42.616;23.350;2022-07-11T12:52:44;9.93;;;1.48;;
6898;SDS011;3488;42.616;23.350;2022-07-11T12:55:19;1.40;;;0.82;;
6898;SDS011;3488;42.616;23.350;2022-07-11T12:58:00;1.23;;;0.63;;
6898;SDS011;3488;42.616;23.350;2022-07-11T13:00:31;1.45;;;0.73;;
6898;SDS011;3488;42.616;23.350;2022-07-11T13:02:58;0.85;;;0.75;;
6898;SDS011;3488;42.616;23.350;2022-07-11T13:05:27;1.45;;;0.93;;
6898;SDS011;3488;42.616;23.350;2022-07-11T13:07:54;2.42;;;0.90;;
6898;SDS011;3488;42.616;23.350;2022-07-11T13:10:38;0.80;;;0.80;;
6898;SDS011;3488;42.616;23.350;2022-07-11T13:13:18;1.27;;;0.90;;
6898;SDS011;3488;42.616;23.350;2022-07-11T13:15:46;3.90;;;0.90;;
6898;SDS011;3488;42.616;23.350;2022-07-11T13:18:16;3.75;;;0.80;;
6898;SDS011;3488;42.616;23.350;2022-07-11T13:20:44;0.93;;;0.93;;
6898;SDS011;3488;42.616;23.350;2022-07-11T13:23:11;0.90;;;0.90;;
6898;SDS011;3488;42.616;23.350;2022-07-11T13:25:38;1.35;;;0.80;;
6898;SDS011;3488;42.616;23.350;2022-07-11T13:28:05;0.60;;;0.60;;
6898;SDS011;3488;42.616;23.350;2022-07-11T13:30:32;0.98;;;0.80;;
6898;SDS011;3488;42.616;23.350;2022-07-11T13:32:59;1.35;;;1.00;;
6898;SDS011;3488;42.616;23.350;2022-07-11T13:35:28;0.95;;;0.93;;
6898;SDS011;3488;42.616;23.350;2022-07-11T13:37:58;3.30;;;0.52;;
6898;SDS011;3488;42.616;23.350;2022-07-11T13:40:25;0.85;;;0.85;;
6898;SDS011;3488;42.616;23.350;2022-07-11T13:42:55;0.80;;;0.80;;
6898;SDS011;3488;42.616;23.350;2022-07-11T13:45:24;2.13;;;1.52;;
6898;SDS011;3488;42.616;23.350;2022-07-11T13:47:52;0.95;;;0.95;;
6898;SDS011;3488;42.616;23.350;2022-07-11T13:50:19;0.80;;;0.80;;
6898;SDS011;3488;42.616;23.350;2022-07-11T13:52:47;2.42;;;1.00;;
6898;SDS011;3488;42.616;23.350;2022-07-11T13:55:16;0.90;;;0.90;;
6898;SDS011;3488;42.616;23.350;2022-07-11T13:57:44;1.70;;;0.80;;
6898;SDS011;3488;42.616;23.350;2022-07-11T14:00:15;1.63;;;0.63;;
6898;SDS011;3488;42.616;23.350;2022-07-11T14:02:42;1.17;;;0.63;;
6898;SDS011;3488;42.616;23.350;2022-07-11T14:05:14;3.20;;;0.90;;
6898;SDS011;3488;42.616;23.350;2022-07-11T14:07:41;1.20;;;1.00;;
6898;SDS011;3488;42.616;23.350;2022-07-11T14:10:08;1.08;;;1.08;;
6898;SDS011;3488;42.616;23.350;2022-07-11T14:12:37;2.83;;;1.13;;
6898;SDS011;3488;42.616;23.350;2022-07-11T14:15:05;0.90;;;0.90;;
6898;SDS011;3488;42.616;23.350;2022-07-11T14:17:33;0.98;;;0.90;;
6898;SDS011;3488;42.616;23.350;2022-07-11T14:20:00;0.70;;;0.70;;
6898;SDS011;3488;42.616;23.350;2022-07-11T14:22:27;0.80;;;0.80;;
6898;SDS011;3488;42.616;23.350;2022-07-11T14:24:55;1.45;;;1.10;;
6898;SDS011;3488;42.616;23.350;2022-07-11T14:27:22;0.85;;;0.80;;
6898;SDS011;3488;42.616;23.350;2022-07-11T14:29:51;2.47;;;0.60;;
6898;SDS011;3488;42.616;23.350;2022-07-11T14:32:18;0.80;;;0.80;;
6898;SDS011;3488;42.616;23.350;2022-07-11T14:34:45;1.92;;;0.70;;
6898;SDS011;3488;42.616;23.350;2022-07-11T14:37:12;0.75;;;0.75;;
6898;SDS011;3488;42.616;23.350;2022-07-11T14:39:39;0.85;;;0.80;;
6898;SDS011;3488;42.616;23.350;2022-07-11T14:42:06;1.90;;;0.90;;
6898;SDS011;3488;42.616;23.350;2022-07-11T14:44:33;0.80;;;0.80;;
6898;SDS011;3488;42.616;23.350;2022-07-11T14:47:01;0.60;;;0.60;;
6898;SDS011;3488;42.616;23.350;2022-07-11T14:49:29;0.90;;;0.90;;
6898;SDS011;3488;42.616;23.350;2022-07-11T14:51:56;1.73;;;1.08;;
6898;SDS011;3488;42.616;23.350;2022-07-11T14:54:22;2.42;;;0.70;;
6898;SDS011;3488;42.616;23.350;2022-07-11T14:56:49;1.85;;;0.90;;
6898;SDS011;3488;42.616;23.350;2022-07-11T14:59:16;1.90;;;1.00;;
6898;SDS011;3488;42.616;23.350;2022-07-11T15:01:43;1.10;;;1.10;;
6898;SDS011;3488;42.616;23.350;2022-07-11T15:04:12;5.88;;;1.05;;
6898;SDS011;3488;42.616;23.350;2022-07-11T15:06:39;0.80;;;0.80;;
6898;SDS011;3488;42.616;23.350;2022-07-11T15:09:23;1.42;;;0.80;;
6898;SDS011;3488;42.616;23.350;2022-07-11T15:12:07;0.80;;;0.80;;
6898;SDS011;3488;42.616;23.350;2022-07-11T15:14:48;1.10;;;1.00;;
6898;SDS011;3488;42.616;23.350;2022-07-11T15:17:16;2.53;;;0.80;;